sensor_id;sensor_type;location;lat;lon;timestamp;temperature;humidity
4487;DHT22;2256;48.740;9.106;2023-06-10T00:00:24;16.80;98.80
4487;DHT22;2256;48.740;9.106;2023-06-10T00:02:51;16.80;98.90
4487;DHT22;2256;48.740;9.106;2023-06-10T00:05:19;16.80;98.90
4487;DHT22;2256;48.740;9.106;2023-06-10T00:07:46;16.90;98.80
4487;DHT22;2256;48.740;9.106;2023-06-10T00:10:13;17.00;98.60
4487;DHT22;2256;48.740;9.106;2023-06-10T00:12:41;17.00;98.50
4487;DHT22;2256;48.740;9.106;2023-06-10T00:15:10;17.00;98.40
4487;DHT22;2256;48.740;9.106;2023-06-10T00:17:37;17.10;98.20
4487;DHT22;2256;48.740;9.106;2023-06-10T00:20:07;17.00;98.20
4487;DHT22;2256;48.740;9.106;2023-06-10T00:22:35;17.00;98.10
4487;DHT22;2256;48.740;9.106;2023-06-10T00:25:03;17.10;98.20
4487;DHT22;2256;48.740;9.106;2023-06-10T00:27:30;17.00;98.30
4487;DHT22;2256;48.740;9.106;2023-06-10T00:30:02;17.00;98.40
4487;DHT22;2256;48.740;9.106;2023-06-10T00:32:32;16.90;98.60
4487;DHT22;2256;48.740;9.106;2023-06-10T00:34:59;16.90;98.90
4487;DHT22;2256;48.740;9.106;2023-06-10T00:37:25;16.90;98.90
4487;DHT22;2256;48.740;9.106;2023-06-10T00:39:54;16.90;98.60
4487;DHT22;2256;48.740;9.106;2023-06-10T00:42:20;16.90;98.70
4487;DHT22;2256;48.740;9.106;2023-06-10T00:44:50;16.80;99.00
4487;DHT22;2256;48.740;9.106;2023-06-10T00:47:17;16.80;99.20
4487;DHT22;2256;48.740;9.106;2023-06-10T00:49:45;16.70;99.30
4487;DHT22;2256;48.740;9.106;2023-06-10T00:52:14;16.70;99.40
4487;DHT22;2256;48.740;9.106;2023-06-10T00:54:41;16.60;99.60
4487;DHT22;2256;48.740;9.106;2023-06-10T00:57:12;16.50;99.90
4487;DHT22;2256;48.740;9.106;2023-06-10T00:59:39;16.50;99.90
4487;DHT22;2256;48.740;9.106;2023-06-10T01:02:08;16.50;99.90
4487;DHT22;2256;48.740;9.106;2023-06-10T01:04:35;16.50;99.90
4487;DHT22;2256;48.740;9.106;2023-06-10T01:07:09;16.40;99.90
4487;DHT22;2256;48.740;9.106;2023-06-10T01:09:42;16.40;99.90
4487;DHT22;2256;48.740;9.106;2023-06-10T01:12:19;16.40;99.90
4487;DHT22;2256;48.740;9.106;2023-06-10T01:14:46;16.30;99.90
4487;DHT22;2256;48.740;9.106;2023-06-10T01:17:14;16.40;99.90
4487;DHT22;2256;48.740;9.106;2023-06-10T01:19:43;16.40;99.90
4487;DHT22;2256;48.740;9.106;2023-06-10T01:22:11;16.40;99.90
4487;DHT22;2256;48.740;9.106;2023-06-10T01:24:44;16.40;99.90
4487;DHT22;2256;48.740;9.106;2023-06-10T01:27:13;16.40;99.90
4487;DHT22;2256;48.740;9.106;2023-06-10T01:29:45;16.40;99.90
4487;DHT22;2256;48.740;9.106;2023-06-10T01:32:17;16.30;99.90
4487;DHT22;2256;48.740;9.106;2023-06-10T01:34:45;16.20;99.90
4487;DHT22;2256;48.740;9.106;2023-06-10T01:37:18;16.30;99.90
4487;DHT22;2256;48.740;9.106;2023-06-10T01:39:46;16.30;99.90
4487;DHT22;2256;48.740;9.106;2023-06-10T01:42:15;16.30;99.90
4487;DHT22;2256;48.740;9.106;2023-06-10T01:44:42;16.40;99.90
4487;DHT22;2256;48.740;9.106;2023-06-10T01:47:09;16.30;99.90
4487;DHT22;2256;48.740;9.106;2023-06-10T01:49:37;16.30;99.90
4487;DHT22;2256;48.740;9.106;2023-06-10T01:52:04;16.30;99.90
4487;DHT22;2256;48.740;9.106;2023-06-10T01:54:33;16.30;99.90
4487;DHT22;2256;48.740;9.106;2023-06-10T01:57:00;16.30;99.90
4487;DHT22;2256;48.740;9.106;2023-06-10T01:59:27;16.20;99.90
4487;DHT22;2256;48.740;9.106;2023-06-10T02:01:54;16.20;99.90
4487;DHT22;2256;48.740;9.106;2023-06-10T02:04:20;16.20;99.90
4487;DHT22;2256;48.740;9.106;2023-06-10T02:06:47;16.20;99.90
4487;DHT22;2256;48.740;9.106;2023-06-10T02:09:14;16.20;99.90
4487;DHT22;2256;48.740;9.106;2023-06-10T02:11:42;16.20;99.90
4487;DHT22;2256;48.740;9.106;2023-06-10T02:14:09;16.20;99.90
4487;DHT22;2256;48.740;9.106;2023-06-10T02:16:35;16.10;99.90
4487;DHT22;2256;48.740;9.106;2023-06-10T02:19:02;16.10;99.90
4487;DHT22;2256;48.740;9.106;2023-06-10T02:21:32;16.10;99.90
4487;DHT22;2256;48.740;9.106;2023-06-10T02:23:59;16.10;99.90
4487;DHT22;2256;48.740;9.106;2023-06-10T02:26:26;16.10;99.90
4487;DHT22;2256;48.740;9.106;2023-06-10T02:28:54;16.20;99.90
4487;DHT22;2256;48.740;9.106;2023-06-10T02:31:21;16.10;99.90
4487;DHT22;2256;48.740;9.106;2023-06-10T02:33:50;16.00;99.90
4487;DHT22;2256;48.740;9.106;2023-06-10T02:36:17;16.00;99.90
4487;DHT22;2256;48.740;9.106;2023-06-10T02:38:44;15.90;99.90
4487;DHT22;2256;48.740;9.106;2023-06-10T02:41:10;16.00;99.90
4487;DHT22;2256;48.740;9.106;2023-06-10T02:43:37;15.90;99.90
4487;DHT22;2256;48.740;9.106;2023-06-10T02:46:06;15.90;99.90
4487;DHT22;2256;48.740;9.106;2023-06-10T02:48:43;15.90;99.90
4487;DHT22;2256;48.740;9.106;2023-06-10T02:51:10;15.90;99.90
4487;DHT22;2256;48.740;9.106;2023-06-10T02:53:37;15.90;99.90
4487;DHT22;2256;48.740;9.106;2023-06-10T02:56:04;15.80;99.90
4487;DHT22;2256;48.740;9.106;2023-06-10T02:58:31;15.80;99.90
4487;DHT22;2256;48.740;9.106;2023-06-10T03:00:57;15.70;99.90
4487;DHT22;2256;48.740;9.106;2023-06-10T03:03:26;15.70;99.90
4487;DHT22;2256;48.740;9.106;2023-06-10T03:05:53;15.70;99.90
4487;DHT22;2256;48.740;9.106;2023-06-10T03:08:20;15.70;99.90
4487;DHT22;2256;48.740;9.106;2023-06-10T03:10:47;15.60;99.90
4487;DHT22;2256;48.740;9.106;2023-06-10T03:13:14;15.40;99.90
4487;DHT22;2256;48.740;9.106;2023-06-10T03:15:41;15.40;99.90
4487;DHT22;2256;48.740;9.106;2023-06-10T03:18:08;15.40;99.90
4487;DHT22;2256;48.740;9.106;2023-06-10T03:20:36;15.40;99.90
4487;DHT22;2256;48.740;9.106;2023-06-10T03:23:04;15.30;99.90
4487;DHT22;2256;48.740;9.106;2023-06-10T03:25:31;15.20;99.90
4487;DHT22;2256;48.740;9.106;2023-06-10T03:27:58;15.20;99.90
4487;DHT22;2256;48.740;9.106;2023-06-10T03:30:26;15.20;99.90
4487;DHT22;2256;48.740;9.106;2023-06-10T03:32:53;15.20;99.90
4487;DHT22;2256;48.740;9.106;2023-06-10T03:35:20;15.10;99.90
4487;DHT22;2256;48.740;9.106;2023-06-10T03:37:49;15.10;99.90
4487;DHT22;2256;48.740;9.106;2023-06-10T03:40:15;15.10;99.90
4487;DHT22;2256;48.740;9.106;2023-06-10T03:42:45;15.10;99.90
4487;DHT22;2256;48.740;9.106;2023-06-10T03:45:12;15.20;99.90
4487;DHT22;2256;48.740;9.106;2023-06-10T03:47:39;15.20;99.90
4487;DHT22;2256;48.740;9.106;2023-06-10T03:50:07;15.20;99.90
4487;DHT22;2256;48.740;9.106;2023-06-10T03:52:35;15.10;99.90
4487;DHT22;2256;48.740;9.106;2023-06-10T03:55:03;15.20;99.90
4487;DHT22;2256;48.740;9.106;2023-06-10T03:57:30;15.20;99.90
4487;DHT22;2256;48.740;9.106;2023-06-10T03:59:57;15.20;99.90
4487;DHT22;2256;48.740;9.106;2023-06-10T04:02:24;15.20;99.90
4487;DHT22;2256;48.740;9.106;2023-06-10T04:04:51;15.20;99.90
4487;DHT22;2256;48.740;9.106;2023-06-10T04:07:18;15.20;99.90
4487;DHT22;2256;48.740;9.106;2023-06-10T04:09:45;15.20;99.90
4487;DHT22;2256;48.740;9.106;2023-06-10T04:12:14;15.20;99.90
4487;DHT22;2256;48.740;9.106;2023-06-10T04:14:42;15.20;99.90
4487;DHT22;2256;48.740;9.106;2023-06-10T04:17:08;15.20;99.90
4487;DHT22;2256;48.740;9.106;2023-06-10T04:19:36;15.20;99.90
4487;DHT22;2256;48.740;9.106;2023-06-10T04:22:03;15.30;99.90
4487;DHT22;2256;48.740;9.106;2023-06-10T04:24:32;15.30;99.90
4487;DHT22;2256;48.740;9.106;2023-06-10T04:26:59;15.40;99.90
4487;DHT22;2256;48.740;9.106;2023-06-10T04:29:28;15.50;99.90
4487;DHT22;2256;48.740;9.106;2023-06-10T04:31:54;15.50;99.90
4487;DHT22;2256;48.740;9.106;2023-06-10T04:34:21;15.60;99.90
4487;DHT22;2256;48.740;9.106;2023-06-10T04:36:48;15.70;99.90
4487;DHT22;2256;48.740;9.106;2023-06-10T04:39:16;15.70;99.90
4487;DHT22;2256;48.740;9.106;2023-06-10T04:41:45;15.80;99.90
4487;DHT22;2256;48.740;9.106;2023-06-10T04:44:11;15.90;99.90
4487;DHT22;2256;48.740;9.106;2023-06-10T04:46:40;16.00;99.90
4487;DHT22;2256;48.740;9.106;2023-06-10T04:49:07;16.10;99.90
4487;DHT22;2256;48.740;9.106;2023-06-10T04:51:34;16.20;99.90
4487;DHT22;2256;48.740;9.106;2023-06-10T04:54:01;16.20;99.90
4487;DHT22;2256;48.740;9.106;2023-06-10T04:56:29;16.30;99.90
4487;DHT22;2256;48.740;9.106;2023-06-10T04:58:56;16.30;99.90
4487;DHT22;2256;48.740;9.106;2023-06-10T05:01:23;16.40;99.90
4487;DHT22;2256;48.740;9.106;2023-06-10T05:03:51;16.50;99.90
4487;DHT22;2256;48.740;9.106;2023-06-10T05:06:18;16.70;99.90
4487;DHT22;2256;48.740;9.106;2023-06-10T05:08:45;17.00;99.90
4487;DHT22;2256;48.740;9.106;2023-06-10T05:11:12;17.10;99.90
4487;DHT22;2256;48.740;9.106;2023-06-10T05:13:38;17.40;99.90
4487;DHT22;2256;48.740;9.106;2023-06-10T05:16:06;17.50;99.90
4487;DHT22;2256;48.740;9.106;2023-06-10T05:18:33;17.60;99.90
4487;DHT22;2256;48.740;9.106;2023-06-10T05:21:02;17.50;99.90
4487;DHT22;2256;48.740;9.106;2023-06-10T05:23:29;17.60;99.90
4487;DHT22;2256;48.740;9.106;2023-06-10T05:25:56;17.80;99.90
4487;DHT22;2256;48.740;9.106;2023-06-10T05:28:23;17.80;99.90
4487;DHT22;2256;48.740;9.106;2023-06-10T05:30:51;17.80;99.90
4487;DHT22;2256;48.740;9.106;2023-06-10T05:33:18;18.10;99.90
4487;DHT22;2256;48.740;9.106;2023-06-10T05:35:46;18.10;99.90
4487;DHT22;2256;48.740;9.106;2023-06-10T05:38:14;18.10;99.90
4487;DHT22;2256;48.740;9.106;2023-06-10T05:40:41;18.20;99.90
4487;DHT22;2256;48.740;9.106;2023-06-10T05:43:09;18.20;99.90
4487;DHT22;2256;48.740;9.106;2023-06-10T05:45:37;18.40;99.90
4487;DHT22;2256;48.740;9.106;2023-06-10T05:48:05;18.50;99.90
4487;DHT22;2256;48.740;9.106;2023-06-10T05:50:33;18.60;99.90
4487;DHT22;2256;48.740;9.106;2023-06-10T05:53:03;18.70;99.90
4487;DHT22;2256;48.740;9.106;2023-06-10T05:55:33;18.80;99.90
4487;DHT22;2256;48.740;9.106;2023-06-10T05:58:00;18.90;99.90
4487;DHT22;2256;48.740;9.106;2023-06-10T06:00:27;18.90;99.90
4487;DHT22;2256;48.740;9.106;2023-06-10T06:02:54;18.90;99.90
4487;DHT22;2256;48.740;9.106;2023-06-10T06:05:23;19.10;99.90
4487;DHT22;2256;48.740;9.106;2023-06-10T06:07:49;19.10;99.90
4487;DHT22;2256;48.740;9.106;2023-06-10T06:10:17;19.20;99.90
4487;DHT22;2256;48.740;9.106;2023-06-10T06:12:45;19.30;99.90
4487;DHT22;2256;48.740;9.106;2023-06-10T06:15:12;19.40;99.90
4487;DHT22;2256;48.740;9.106;2023-06-10T06:17:39;19.50;99.90
4487;DHT22;2256;48.740;9.106;2023-06-10T06:20:07;19.70;99.90
4487;DHT22;2256;48.740;9.106;2023-06-10T06:22:33;19.80;99.90
4487;DHT22;2256;48.740;9.106;2023-06-10T06:25:01;19.90;99.90
4487;DHT22;2256;48.740;9.106;2023-06-10T06:27:29;20.10;99.80
4487;DHT22;2256;48.740;9.106;2023-06-10T06:29:57;20.30;99.60
4487;DHT22;2256;48.740;9.106;2023-06-10T06:32:25;20.60;99.70
4487;DHT22;2256;48.740;9.106;2023-06-10T06:34:53;21.40;99.00
4487;DHT22;2256;48.740;9.106;2023-06-10T06:37:21;22.50;97.80
4487;DHT22;2256;48.740;9.106;2023-06-10T06:39:48;23.60;96.30
4487;DHT22;2256;48.740;9.106;2023-06-10T06:42:15;24.50;94.80
4487;DHT22;2256;48.740;9.106;2023-06-10T06:44:42;24.80;94.10
4487;DHT22;2256;48.740;9.106;2023-06-10T06:47:11;25.00;94.00
4487;DHT22;2256;48.740;9.106;2023-06-10T06:49:39;25.10;93.70
4487;DHT22;2256;48.740;9.106;2023-06-10T06:52:06;25.60;93.00
4487;DHT22;2256;48.740;9.106;2023-06-10T06:54:33;26.00;92.30
4487;DHT22;2256;48.740;9.106;2023-06-10T06:57:00;26.20;92.00
4487;DHT22;2256;48.740;9.106;2023-06-10T06:59:27;26.60;91.90
4487;DHT22;2256;48.740;9.106;2023-06-10T07:01:54;27.30;91.40
4487;DHT22;2256;48.740;9.106;2023-06-10T07:04:23;27.20;90.70
4487;DHT22;2256;48.740;9.106;2023-06-10T07:06:50;27.50;90.20
4487;DHT22;2256;48.740;9.106;2023-06-10T07:09:18;28.20;89.10
4487;DHT22;2256;48.740;9.106;2023-06-10T07:11:44;28.70;88.60
4487;DHT22;2256;48.740;9.106;2023-06-10T07:14:11;28.80;87.00
4487;DHT22;2256;48.740;9.106;2023-06-10T07:16:38;28.60;87.80
4487;DHT22;2256;48.740;9.106;2023-06-10T07:19:04;28.90;86.90
4487;DHT22;2256;48.740;9.106;2023-06-10T07:21:33;29.10;86.30
4487;DHT22;2256;48.740;9.106;2023-06-10T07:24:00;29.30;86.20
4487;DHT22;2256;48.740;9.106;2023-06-10T07:26:27;29.20;86.10
4487;DHT22;2256;48.740;9.106;2023-06-10T07:28:53;28.30;86.30
4487;DHT22;2256;48.740;9.106;2023-06-10T07:31:20;27.90;88.00
4487;DHT22;2256;48.740;9.106;2023-06-10T07:33:47;27.90;87.70
4487;DHT22;2256;48.740;9.106;2023-06-10T07:36:14;28.40;86.60
4487;DHT22;2256;48.740;9.106;2023-06-10T07:38:42;28.90;85.60
4487;DHT22;2256;48.740;9.106;2023-06-10T07:41:08;29.20;85.20
4487;DHT22;2256;48.740;9.106;2023-06-10T07:43:36;29.50;85.20
4487;DHT22;2256;48.740;9.106;2023-06-10T07:46:04;29.90;84.10
4487;DHT22;2256;48.740;9.106;2023-06-10T07:48:31;30.00;84.00
4487;DHT22;2256;48.740;9.106;2023-06-10T07:50:58;29.60;83.50
4487;DHT22;2256;48.740;9.106;2023-06-10T07:53:25;29.70;83.80
4487;DHT22;2256;48.740;9.106;2023-06-10T07:55:53;29.30;83.70
4487;DHT22;2256;48.740;9.106;2023-06-10T07:58:20;28.50;85.80
4487;DHT22;2256;48.740;9.106;2023-06-10T08:00:47;28.10;87.10
4487;DHT22;2256;48.740;9.106;2023-06-10T08:03:14;28.20;86.60
4487;DHT22;2256;48.740;9.106;2023-06-10T08:05:41;28.80;86.00
4487;DHT22;2256;48.740;9.106;2023-06-10T08:08:08;29.20;84.80
4487;DHT22;2256;48.740;9.106;2023-06-10T08:10:35;29.50;84.20
4487;DHT22;2256;48.740;9.106;2023-06-10T08:13:03;29.60;83.70
4487;DHT22;2256;48.740;9.106;2023-06-10T08:15:30;29.70;84.30
4487;DHT22;2256;48.740;9.106;2023-06-10T08:17:57;30.00;83.50
4487;DHT22;2256;48.740;9.106;2023-06-10T08:20:24;29.60;83.90
4487;DHT22;2256;48.740;9.106;2023-06-10T08:22:50;29.00;85.70
4487;DHT22;2256;48.740;9.106;2023-06-10T08:25:17;29.20;84.40
4487;DHT22;2256;48.740;9.106;2023-06-10T08:27:47;29.40;84.40
4487;DHT22;2256;48.740;9.106;2023-06-10T08:30:15;29.50;84.20
4487;DHT22;2256;48.740;9.106;2023-06-10T08:32:42;29.30;85.70
4487;DHT22;2256;48.740;9.106;2023-06-10T08:35:09;29.20;85.60
4487;DHT22;2256;48.740;9.106;2023-06-10T08:37:35;29.70;84.40
4487;DHT22;2256;48.740;9.106;2023-06-10T08:40:03;29.80;84.00
4487;DHT22;2256;48.740;9.106;2023-06-10T08:42:34;29.20;84.70
4487;DHT22;2256;48.740;9.106;2023-06-10T08:45:03;28.90;86.70
4487;DHT22;2256;48.740;9.106;2023-06-10T08:47:34;29.30;84.60
4487;DHT22;2256;48.740;9.106;2023-06-10T08:50:03;30.00;84.20
4487;DHT22;2256;48.740;9.106;2023-06-10T08:52:35;30.00;84.40
4487;DHT22;2256;48.740;9.106;2023-06-10T08:55:05;29.80;83.80
4487;DHT22;2256;48.740;9.106;2023-06-10T08:57:34;29.60;83.30
4487;DHT22;2256;48.740;9.106;2023-06-10T09:00:01;29.30;83.90
4487;DHT22;2256;48.740;9.106;2023-06-10T09:02:28;29.60;84.50
4487;DHT22;2256;48.740;9.106;2023-06-10T09:04:58;29.90;83.10
4487;DHT22;2256;48.740;9.106;2023-06-10T09:07:26;29.90;82.50
4487;DHT22;2256;48.740;9.106;2023-06-10T09:09:53;29.10;83.60
4487;DHT22;2256;48.740;9.106;2023-06-10T09:12:21;28.30;86.30
4487;DHT22;2256;48.740;9.106;2023-06-10T09:14:48;28.00;87.00
4487;DHT22;2256;48.740;9.106;2023-06-10T09:17:15;28.40;85.40
4487;DHT22;2256;48.740;9.106;2023-06-10T09:19:44;28.80;85.90
4487;DHT22;2256;48.740;9.106;2023-06-10T09:22:12;29.80;84.70
4487;DHT22;2256;48.740;9.106;2023-06-10T09:24:39;30.20;82.50
4487;DHT22;2256;48.740;9.106;2023-06-10T09:27:09;29.20;81.70
4487;DHT22;2256;48.740;9.106;2023-06-10T09:29:45;28.10;83.60
4487;DHT22;2256;48.740;9.106;2023-06-10T09:32:13;27.20;86.40
4487;DHT22;2256;48.740;9.106;2023-06-10T09:34:40;27.60;86.60
4487;DHT22;2256;48.740;9.106;2023-06-10T09:37:07;27.80;85.20
4487;DHT22;2256;48.740;9.106;2023-06-10T09:39:38;28.00;86.40
4487;DHT22;2256;48.740;9.106;2023-06-10T09:42:15;28.50;85.40
4487;DHT22;2256;48.740;9.106;2023-06-10T09:44:46;28.60;84.10
4487;DHT22;2256;48.740;9.106;2023-06-10T09:47:20;28.10;84.50
4487;DHT22;2256;48.740;9.106;2023-06-10T09:49:47;28.20;85.10
4487;DHT22;2256;48.740;9.106;2023-06-10T09:52:13;28.30;85.70
4487;DHT22;2256;48.740;9.106;2023-06-10T09:54:44;28.90;84.30
4487;DHT22;2256;48.740;9.106;2023-06-10T09:57:12;29.30;84.30
4487;DHT22;2256;48.740;9.106;2023-06-10T09:59:41;29.40;83.80
4487;DHT22;2256;48.740;9.106;2023-06-10T10:02:13;28.70;84.00
4487;DHT22;2256;48.740;9.106;2023-06-10T10:04:40;28.60;84.70
4487;DHT22;2256;48.740;9.106;2023-06-10T10:07:07;29.40;83.00
4487;DHT22;2256;48.740;9.106;2023-06-10T10:09:35;29.80;82.40
4487;DHT22;2256;48.740;9.106;2023-06-10T10:12:07;30.20;80.80
4487;DHT22;2256;48.740;9.106;2023-06-10T10:14:36;29.60;81.10
4487;DHT22;2256;48.740;9.106;2023-06-10T10:17:08;29.20;81.90
4487;DHT22;2256;48.740;9.106;2023-06-10T10:19:42;29.00;80.80
4487;DHT22;2256;48.740;9.106;2023-06-10T10:22:17;28.80;81.40
4487;DHT22;2256;48.740;9.106;2023-06-10T10:24:49;28.00;83.90
4487;DHT22;2256;48.740;9.106;2023-06-10T10:27:21;28.00;83.30
4487;DHT22;2256;48.740;9.106;2023-06-10T10:29:52;28.00;82.80
4487;DHT22;2256;48.740;9.106;2023-06-10T10:32:24;27.80;82.90
4487;DHT22;2256;48.740;9.106;2023-06-10T10:34:59;27.50;84.20
4487;DHT22;2256;48.740;9.106;2023-06-10T10:37:30;27.20;85.40
4487;DHT22;2256;48.740;9.106;2023-06-10T10:40:00;26.60;86.30
4487;DHT22;2256;48.740;9.106;2023-06-10T10:42:29;26.50;86.60
4487;DHT22;2256;48.740;9.106;2023-06-10T10:44:56;26.80;86.60
4487;DHT22;2256;48.740;9.106;2023-06-10T10:47:26;26.80;86.50
4487;DHT22;2256;48.740;9.106;2023-06-10T10:49:54;27.10;88.00
4487;DHT22;2256;48.740;9.106;2023-06-10T10:52:25;27.20;86.10
4487;DHT22;2256;48.740;9.106;2023-06-10T10:54:53;26.80;84.00
4487;DHT22;2256;48.740;9.106;2023-06-10T10:57:22;26.60;85.20
4487;DHT22;2256;48.740;9.106;2023-06-10T10:59:55;26.60;86.00
4487;DHT22;2256;48.740;9.106;2023-06-10T11:02:33;26.40;86.40
4487;DHT22;2256;48.740;9.106;2023-06-10T11:05:01;26.30;87.20
4487;DHT22;2256;48.740;9.106;2023-06-10T11:07:31;26.30;87.90
4487;DHT22;2256;48.740;9.106;2023-06-10T11:09:59;26.00;87.40
4487;DHT22;2256;48.740;9.106;2023-06-10T11:12:26;25.90;88.10
4487;DHT22;2256;48.740;9.106;2023-06-10T11:15:07;25.90;88.20
4487;DHT22;2256;48.740;9.106;2023-06-10T11:17:34;26.30;86.10
4487;DHT22;2256;48.740;9.106;2023-06-10T11:20:01;26.70;86.00
4487;DHT22;2256;48.740;9.106;2023-06-10T11:22:28;26.80;84.30
4487;DHT22;2256;48.740;9.106;2023-06-10T11:24:55;26.60;84.90
4487;DHT22;2256;48.740;9.106;2023-06-10T11:27:25;26.80;86.10
4487;DHT22;2256;48.740;9.106;2023-06-10T11:29:57;27.10;83.80
4487;DHT22;2256;48.740;9.106;2023-06-10T11:32:29;27.40;84.00
4487;DHT22;2256;48.740;9.106;2023-06-10T11:34:57;27.30;85.60
4487;DHT22;2256;48.740;9.106;2023-06-10T11:37:24;27.40;85.40
4487;DHT22;2256;48.740;9.106;2023-06-10T11:39:52;27.40;85.40
4487;DHT22;2256;48.740;9.106;2023-06-10T11:42:20;27.10;85.00
4487;DHT22;2256;48.740;9.106;2023-06-10T11:44:48;26.50;85.70
4487;DHT22;2256;48.740;9.106;2023-06-10T11:47:15;26.20;86.90
4487;DHT22;2256;48.740;9.106;2023-06-10T11:49:46;26.10;87.40
4487;DHT22;2256;48.740;9.106;2023-06-10T11:52:14;26.50;86.50
4487;DHT22;2256;48.740;9.106;2023-06-10T11:54:41;27.30;85.50
4487;DHT22;2256;48.740;9.106;2023-06-10T11:57:08;27.30;84.30
4487;DHT22;2256;48.740;9.106;2023-06-10T11:59:36;27.00;86.70
4487;DHT22;2256;48.740;9.106;2023-06-10T12:02:04;26.70;85.30
4487;DHT22;2256;48.740;9.106;2023-06-10T12:04:31;26.70;85.80
4487;DHT22;2256;48.740;9.106;2023-06-10T12:06:59;26.80;86.40
4487;DHT22;2256;48.740;9.106;2023-06-10T12:09:27;26.80;85.20
4487;DHT22;2256;48.740;9.106;2023-06-10T12:11:57;27.10;85.00
4487;DHT22;2256;48.740;9.106;2023-06-10T12:14:53;27.60;84.20
4487;DHT22;2256;48.740;9.106;2023-06-10T12:17:21;28.30;82.80
4487;DHT22;2256;48.740;9.106;2023-06-10T12:19:48;28.50;81.80
4487;DHT22;2256;48.740;9.106;2023-06-10T12:22:17;28.80;81.40
4487;DHT22;2256;48.740;9.106;2023-06-10T12:24:45;29.20;81.30
4487;DHT22;2256;48.740;9.106;2023-06-10T12:27:12;29.50;81.50
4487;DHT22;2256;48.740;9.106;2023-06-10T12:29:39;29.70;82.20
4487;DHT22;2256;48.740;9.106;2023-06-10T12:32:19;29.20;79.60
4487;DHT22;2256;48.740;9.106;2023-06-10T12:34:48;28.60;82.40
4487;DHT22;2256;48.740;9.106;2023-06-10T12:37:17;28.10;81.50
4487;DHT22;2256;48.740;9.106;2023-06-10T12:39:51;27.60;81.90
4487;DHT22;2256;48.740;9.106;2023-06-10T12:42:21;27.50;83.20
4487;DHT22;2256;48.740;9.106;2023-06-10T12:44:53;27.70;84.00
4487;DHT22;2256;48.740;9.106;2023-06-10T12:47:21;28.00;82.00
4487;DHT22;2256;48.740;9.106;2023-06-10T12:49:57;28.00;82.70
4487;DHT22;2256;48.740;9.106;2023-06-10T12:52:27;27.70;82.60
4487;DHT22;2256;48.740;9.106;2023-06-10T12:54:54;27.50;82.60
4487;DHT22;2256;48.740;9.106;2023-06-10T12:57:21;27.40;83.30
4487;DHT22;2256;48.740;9.106;2023-06-10T12:59:48;27.20;82.20
4487;DHT22;2256;48.740;9.106;2023-06-10T13:02:18;27.00;82.80
4487;DHT22;2256;48.740;9.106;2023-06-10T13:04:47;26.90;83.30
4487;DHT22;2256;48.740;9.106;2023-06-10T13:07:14;26.70;83.00
4487;DHT22;2256;48.740;9.106;2023-06-10T13:09:42;26.60;83.50
4487;DHT22;2256;48.740;9.106;2023-06-10T13:12:10;26.60;84.00
4487;DHT22;2256;48.740;9.106;2023-06-10T13:14:38;26.90;84.30
4487;DHT22;2256;48.740;9.106;2023-06-10T13:17:05;27.50;83.70
4487;DHT22;2256;48.740;9.106;2023-06-10T13:19:32;28.00;83.20
4487;DHT22;2256;48.740;9.106;2023-06-10T13:21:59;28.50;82.70
4487;DHT22;2256;48.740;9.106;2023-06-10T13:24:26;28.80;80.00
4487;DHT22;2256;48.740;9.106;2023-06-10T13:26:54;28.90;80.00
4487;DHT22;2256;48.740;9.106;2023-06-10T13:29:23;29.10;79.80
4487;DHT22;2256;48.740;9.106;2023-06-10T13:31:50;29.30;78.30
4487;DHT22;2256;48.740;9.106;2023-06-10T13:34:17;29.60;80.00
4487;DHT22;2256;48.740;9.106;2023-06-10T13:36:44;30.00;80.20
4487;DHT22;2256;48.740;9.106;2023-06-10T13:39:10;30.10;78.00
4487;DHT22;2256;48.740;9.106;2023-06-10T13:41:40;30.20;78.40
4487;DHT22;2256;48.740;9.106;2023-06-10T13:44:08;29.80;77.10
4487;DHT22;2256;48.740;9.106;2023-06-10T13:46:35;29.30;78.50
4487;DHT22;2256;48.740;9.106;2023-06-10T13:49:01;29.30;77.90
4487;DHT22;2256;48.740;9.106;2023-06-10T13:51:28;29.40;77.60
4487;DHT22;2256;48.740;9.106;2023-06-10T13:53:55;29.20;78.00
4487;DHT22;2256;48.740;9.106;2023-06-10T13:56:23;29.20;78.70
4487;DHT22;2256;48.740;9.106;2023-06-10T13:58:50;29.30;77.60
4487;DHT22;2256;48.740;9.106;2023-06-10T14:01:18;29.40;77.70
4487;DHT22;2256;48.740;9.106;2023-06-10T14:03:45;29.40;76.40
4487;DHT22;2256;48.740;9.106;2023-06-10T14:06:12;29.00;76.90
4487;DHT22;2256;48.740;9.106;2023-06-10T14:08:46;29.00;77.80
4487;DHT22;2256;48.740;9.106;2023-06-10T14:11:13;28.90;77.30
4487;DHT22;2256;48.740;9.106;2023-06-10T14:13:41;28.40;78.10
4487;DHT22;2256;48.740;9.106;2023-06-10T14:16:08;28.10;79.20
4487;DHT22;2256;48.740;9.106;2023-06-10T14:18:36;28.10;79.30
4487;DHT22;2256;48.740;9.106;2023-06-10T14:21:03;28.30;79.40
4487;DHT22;2256;48.740;9.106;2023-06-10T14:23:30;28.40;78.60
4487;DHT22;2256;48.740;9.106;2023-06-10T14:25:57;28.50;78.50
4487;DHT22;2256;48.740;9.106;2023-06-10T14:28:24;28.60;77.40
4487;DHT22;2256;48.740;9.106;2023-06-10T14:30:53;28.50;78.90
4487;DHT22;2256;48.740;9.106;2023-06-10T14:33:20;28.50;78.10
4487;DHT22;2256;48.740;9.106;2023-06-10T14:35:48;28.80;78.20
4487;DHT22;2256;48.740;9.106;2023-06-10T14:38:14;29.00;76.90
4487;DHT22;2256;48.740;9.106;2023-06-10T14:40:41;29.20;77.70
4487;DHT22;2256;48.740;9.106;2023-06-10T14:43:08;29.30;77.00
4487;DHT22;2256;48.740;9.106;2023-06-10T14:45:35;29.50;76.20
4487;DHT22;2256;48.740;9.106;2023-06-10T14:48:02;29.50;75.70
4487;DHT22;2256;48.740;9.106;2023-06-10T14:50:29;29.60;76.70
4487;DHT22;2256;48.740;9.106;2023-06-10T14:52:57;29.20;75.90
4487;DHT22;2256;48.740;9.106;2023-06-10T14:55:24;28.60;77.60
4487;DHT22;2256;48.740;9.106;2023-06-10T14:57:53;28.10;77.30
4487;DHT22;2256;48.740;9.106;2023-06-10T15:00:21;27.80;78.30
4487;DHT22;2256;48.740;9.106;2023-06-10T15:02:49;27.50;79.20
4487;DHT22;2256;48.740;9.106;2023-06-10T15:05:17;27.60;79.50
4487;DHT22;2256;48.740;9.106;2023-06-10T15:07:44;27.60;79.70
4487;DHT22;2256;48.740;9.106;2023-06-10T15:10:15;27.90;79.50
4487;DHT22;2256;48.740;9.106;2023-06-10T15:12:42;27.90;79.70
4487;DHT22;2256;48.740;9.106;2023-06-10T15:15:09;27.50;80.70
4487;DHT22;2256;48.740;9.106;2023-06-10T15:17:36;27.10;81.60
4487;DHT22;2256;48.740;9.106;2023-06-10T15:20:04;26.70;82.00
4487;DHT22;2256;48.740;9.106;2023-06-10T15:22:30;26.40;82.40
4487;DHT22;2256;48.740;9.106;2023-06-10T15:24:57;26.40;82.60
4487;DHT22;2256;48.740;9.106;2023-06-10T15:27:25;26.50;82.80
4487;DHT22;2256;48.740;9.106;2023-06-10T15:29:52;26.50;81.70
4487;DHT22;2256;48.740;9.106;2023-06-10T15:32:19;26.50;81.70
4487;DHT22;2256;48.740;9.106;2023-06-10T15:34:49;26.40;82.00
4487;DHT22;2256;48.740;9.106;2023-06-10T15:37:19;26.30;83.20
4487;DHT22;2256;48.740;9.106;2023-06-10T15:39:46;26.30;83.50
4487;DHT22;2256;48.740;9.106;2023-06-10T15:42:13;26.50;83.80
4487;DHT22;2256;48.740;9.106;2023-06-10T15:44:41;26.70;83.30
4487;DHT22;2256;48.740;9.106;2023-06-10T15:47:09;26.90;83.20
4487;DHT22;2256;48.740;9.106;2023-06-10T15:49:36;27.10;82.30
4487;DHT22;2256;48.740;9.106;2023-06-10T15:52:03;27.20;82.90
4487;DHT22;2256;48.740;9.106;2023-06-10T15:54:30;27.50;81.90
4487;DHT22;2256;48.740;9.106;2023-06-10T15:56:58;27.60;82.00
4487;DHT22;2256;48.740;9.106;2023-06-10T15:59:24;27.60;78.30
4487;DHT22;2256;48.740;9.106;2023-06-10T16:01:52;27.70;78.30
4487;DHT22;2256;48.740;9.106;2023-06-10T16:04:19;27.50;79.40
4487;DHT22;2256;48.740;9.106;2023-06-10T16:06:46;27.60;79.80